SULAYMANIYAH INTERNATIONAL AIRPORT
  • SulyAir
  • SulyAir
1 1
Arrival

ArrivalsMore >>

Departure

DeparturesMore >>

TAF

TAF ORSU 141700Z 1418/1518 02014KT CAVOK
BECMG 1512/1414 30008KT=

METARs

METAR ORSU 142200Z 04010KT CAVOK 31/06 Q1006=